<?xml version="1.0" encoding="UTF-8" standalone="no" ?>
<gpx xmlns="http://www.topografix.com/GPX/1/1" xmlns:xsi="http://www.w3.org/2001/XMLSchema-instance" xsi:schemaLocation="http://www.topografix.com/GPX/1/1 http://www.topografix.com/GPX/1/1/gpx.xsd" version="1.1" creator="VisuGPX - https://www.visugpx.com">
  <metadata>
    <name>CrollesLaTerrasse(Court)</name>
    <desc><![CDATA[
Petite sortie pour tester le Sportiva]]></desc>
  </metadata>
  <trk>
    <name><![CDATA[CrollesLaTerrasse(Court)]]></name>
    <desc><![CDATA[Petite sortie pour tester le Sportiva]]></desc>
    <trkseg>
      <trkpt lat="45.28469" lon="5.88353">
        <ele>256.9</ele>
        <time>2010-06-08T14:18:53Z</time>
      </trkpt>
      <trkpt lat="45.28472" lon="5.88406">
        <ele>254.8</ele>
        <time>2010-06-08T14:19:25Z</time>
      </trkpt>
      <trkpt lat="45.28529" lon="5.8849">
        <ele>253.6</ele>
        <time>2010-06-08T14:19:30Z</time>
      </trkpt>
      <trkpt lat="45.28614" lon="5.88574">
        <ele>254</ele>
        <time>2010-06-08T14:19:33Z</time>
      </trkpt>
      <trkpt lat="45.28392" lon="5.88838">
        <ele>241</ele>
        <time>2010-06-08T14:19:48Z</time>
      </trkpt>
      <trkpt lat="45.28361" lon="5.88863">
        <ele>240</ele>
        <time>2010-06-08T14:20:00Z</time>
      </trkpt>
      <trkpt lat="45.28262" lon="5.89017">
        <ele>237.5</ele>
        <time>2010-06-08T14:20:24Z</time>
      </trkpt>
      <trkpt lat="45.28253" lon="5.89067">
        <ele>237.2</ele>
        <time>2010-06-08T14:20:30Z</time>
      </trkpt>
      <trkpt lat="45.28256" lon="5.89169">
        <ele>235.8</ele>
        <time>2010-06-08T14:20:42Z</time>
      </trkpt>
      <trkpt lat="45.28242" lon="5.89291">
        <ele>230.8</ele>
        <time>2010-06-08T14:20:54Z</time>
      </trkpt>
      <trkpt lat="45.28198" lon="5.89377">
        <ele>229.2</ele>
        <time>2010-06-08T14:21:05Z</time>
      </trkpt>
      <trkpt lat="45.28163" lon="5.89476">
        <ele>228.2</ele>
        <time>2010-06-08T14:21:17Z</time>
      </trkpt>
      <trkpt lat="45.28131" lon="5.89522">
        <ele>227.5</ele>
        <time>2010-06-08T14:21:24Z</time>
      </trkpt>
      <trkpt lat="45.28143" lon="5.89559">
        <ele>226.8</ele>
        <time>2010-06-08T14:21:30Z</time>
      </trkpt>
      <trkpt lat="45.28255" lon="5.89665">
        <ele>226.3</ele>
        <time>2010-06-08T14:21:54Z</time>
      </trkpt>
      <trkpt lat="45.28275" lon="5.89681">
        <ele>226.7</ele>
        <time>2010-06-08T14:21:58Z</time>
      </trkpt>
      <trkpt lat="45.2838" lon="5.89776">
        <ele>227</ele>
        <time>2010-06-08T14:22:20Z</time>
      </trkpt>
      <trkpt lat="45.28421" lon="5.89816">
        <ele>227</ele>
        <time>2010-06-08T14:22:29Z</time>
      </trkpt>
      <trkpt lat="45.28458" lon="5.89784">
        <ele>227</ele>
        <time>2010-06-08T14:22:40Z</time>
      </trkpt>
      <trkpt lat="45.28511" lon="5.897">
        <ele>227</ele>
        <time>2010-06-08T14:22:55Z</time>
      </trkpt>
      <trkpt lat="45.28531" lon="5.89688">
        <ele>227</ele>
        <time>2010-06-08T14:22:59Z</time>
      </trkpt>
      <trkpt lat="45.28629" lon="5.89692">
        <ele>227</ele>
        <time>2010-06-08T14:23:17Z</time>
      </trkpt>
      <trkpt lat="45.28806" lon="5.89696">
        <ele>227.8</ele>
        <time>2010-06-08T14:23:50Z</time>
      </trkpt>
      <trkpt lat="45.28896" lon="5.89701">
        <ele>226.8</ele>
        <time>2010-06-08T14:24:07Z</time>
      </trkpt>
      <trkpt lat="45.28966" lon="5.89702">
        <ele>226</ele>
        <time>2010-06-08T14:24:20Z</time>
      </trkpt>
      <trkpt lat="45.28959" lon="5.89761">
        <ele>226</ele>
        <time>2010-06-08T14:24:36Z</time>
      </trkpt>
      <trkpt lat="45.28953" lon="5.89813">
        <ele>227.1</ele>
        <time>2010-06-08T14:24:44Z</time>
      </trkpt>
      <trkpt lat="45.2898" lon="5.89938">
        <ele>230.5</ele>
        <time>2010-06-08T14:25:01Z</time>
      </trkpt>
      <trkpt lat="45.28996" lon="5.9003">
        <ele>230.6</ele>
        <time>2010-06-08T14:25:15Z</time>
      </trkpt>
      <trkpt lat="45.29026" lon="5.90155">
        <ele>233.3</ele>
        <time>2010-06-08T14:25:35Z</time>
      </trkpt>
      <trkpt lat="45.29041" lon="5.90249">
        <ele>233</ele>
        <time>2010-06-08T14:25:51Z</time>
      </trkpt>
      <trkpt lat="45.29061" lon="5.90329">
        <ele>229.5</ele>
        <time>2010-06-08T14:26:09Z</time>
      </trkpt>
      <trkpt lat="45.29096" lon="5.90331">
        <ele>229.2</ele>
        <time>2010-06-08T14:26:19Z</time>
      </trkpt>
      <trkpt lat="45.2921" lon="5.90296">
        <ele>228.9</ele>
        <time>2010-06-08T14:26:43Z</time>
      </trkpt>
      <trkpt lat="45.29331" lon="5.90337">
        <ele>229.8</ele>
        <time>2010-06-08T14:27:07Z</time>
      </trkpt>
      <trkpt lat="45.2936" lon="5.9035">
        <ele>230.4</ele>
        <time>2010-06-08T14:27:13Z</time>
      </trkpt>
      <trkpt lat="45.29465" lon="5.90387">
        <ele>232.5</ele>
        <time>2010-06-08T14:27:34Z</time>
      </trkpt>
      <trkpt lat="45.29564" lon="5.90426">
        <ele>230.8</ele>
        <time>2010-06-08T14:27:53Z</time>
      </trkpt>
      <trkpt lat="45.29717" lon="5.90484">
        <ele>230.1</ele>
        <time>2010-06-08T14:28:22Z</time>
      </trkpt>
      <trkpt lat="45.29788" lon="5.9051">
        <ele>230.7</ele>
        <time>2010-06-08T14:28:35Z</time>
      </trkpt>
      <trkpt lat="45.29934" lon="5.90564">
        <ele>230.5</ele>
        <time>2010-06-08T14:29:03Z</time>
      </trkpt>
      <trkpt lat="45.29944" lon="5.90566">
        <ele>230.6</ele>
        <time>2010-06-08T14:29:05Z</time>
      </trkpt>
      <trkpt lat="45.30062" lon="5.90608">
        <ele>227.8</ele>
        <time>2010-06-08T14:29:27Z</time>
      </trkpt>
      <trkpt lat="45.30103" lon="5.9063">
        <ele>227.1</ele>
        <time>2010-06-08T14:29:35Z</time>
      </trkpt>
      <trkpt lat="45.30226" lon="5.90718">
        <ele>229.6</ele>
        <time>2010-06-08T14:30:00Z</time>
      </trkpt>
      <trkpt lat="45.30252" lon="5.90754">
        <ele>230</ele>
        <time>2010-06-08T14:30:07Z</time>
      </trkpt>
      <trkpt lat="45.30225" lon="5.90826">
        <ele>229.2</ele>
        <time>2010-06-08T14:30:18Z</time>
      </trkpt>
      <trkpt lat="45.30231" lon="5.90861">
        <ele>229.3</ele>
        <time>2010-06-08T14:30:23Z</time>
      </trkpt>
      <trkpt lat="45.30318" lon="5.90967">
        <ele>231.2</ele>
        <time>2010-06-08T14:30:44Z</time>
      </trkpt>
      <trkpt lat="45.30416" lon="5.91083">
        <ele>231.5</ele>
        <time>2010-06-08T14:31:09Z</time>
      </trkpt>
      <trkpt lat="45.30422" lon="5.91132">
        <ele>231.7</ele>
        <time>2010-06-08T14:31:17Z</time>
      </trkpt>
      <trkpt lat="45.30388" lon="5.91163">
        <ele>231.3</ele>
        <time>2010-06-08T14:31:25Z</time>
      </trkpt>
      <trkpt lat="45.3028" lon="5.91286">
        <ele>229</ele>
        <time>2010-06-08T14:31:51Z</time>
      </trkpt>
      <trkpt lat="45.30261" lon="5.91372">
        <ele>229.6</ele>
        <time>2010-06-08T14:32:04Z</time>
      </trkpt>
      <trkpt lat="45.30383" lon="5.91494">
        <ele>230.7</ele>
        <time>2010-06-08T14:32:32Z</time>
      </trkpt>
      <trkpt lat="45.30517" lon="5.91628">
        <ele>232.4</ele>
        <time>2010-06-08T14:33:04Z</time>
      </trkpt>
      <trkpt lat="45.3055" lon="5.91675">
        <ele>233.2</ele>
        <time>2010-06-08T14:33:16Z</time>
      </trkpt>
      <trkpt lat="45.30601" lon="5.91732">
        <ele>235.5</ele>
        <time>2010-06-08T14:33:32Z</time>
      </trkpt>
      <trkpt lat="45.30679" lon="5.91786">
        <ele>238.2</ele>
        <time>2010-06-08T14:33:52Z</time>
      </trkpt>
      <trkpt lat="45.30731" lon="5.91847">
        <ele>239.7</ele>
        <time>2010-06-08T14:34:07Z</time>
      </trkpt>
      <trkpt lat="45.30767" lon="5.91874">
        <ele>241.1</ele>
        <time>2010-06-08T14:34:16Z</time>
      </trkpt>
      <trkpt lat="45.3084" lon="5.91959">
        <ele>243.2</ele>
        <time>2010-06-08T14:34:37Z</time>
      </trkpt>
      <trkpt lat="45.30902" lon="5.91952">
        <ele>244.9</ele>
        <time>2010-06-08T14:34:55Z</time>
      </trkpt>
      <trkpt lat="45.30989" lon="5.92038">
        <ele>246.4</ele>
        <time>2010-06-08T14:35:21Z</time>
      </trkpt>
      <trkpt lat="45.31103" lon="5.92154">
        <ele>251.7</ele>
        <time>2010-06-08T14:35:55Z</time>
      </trkpt>
      <trkpt lat="45.31126" lon="5.92134">
        <ele>253</ele>
        <time>2010-06-08T14:36:03Z</time>
      </trkpt>
      <trkpt lat="45.31205" lon="5.91984">
        <ele>256.6</ele>
        <time>2010-06-08T14:36:37Z</time>
      </trkpt>
      <trkpt lat="45.31216" lon="5.91973">
        <ele>257.2</ele>
        <time>2010-06-08T14:36:43Z</time>
      </trkpt>
      <trkpt lat="45.31317" lon="5.92182">
        <ele>259.3</ele>
        <time>2010-06-08T14:37:21Z</time>
      </trkpt>
      <trkpt lat="45.31364" lon="5.9227">
        <ele>258.3</ele>
        <time>2010-06-08T14:37:35Z</time>
      </trkpt>
      <trkpt lat="45.31414" lon="5.92291">
        <ele>259.4</ele>
        <time>2010-06-08T14:37:46Z</time>
      </trkpt>
      <trkpt lat="45.31472" lon="5.92218">
        <ele>262.1</ele>
        <time>2010-06-08T14:38:08Z</time>
      </trkpt>
      <trkpt lat="45.31546" lon="5.92093">
        <ele>267.6</ele>
        <time>2010-06-08T14:38:45Z</time>
      </trkpt>
      <trkpt lat="45.31582" lon="5.9203">
        <ele>271.8</ele>
        <time>2010-06-08T14:39:11Z</time>
      </trkpt>
      <trkpt lat="45.31586" lon="5.92006">
        <ele>272.6</ele>
        <time>2010-06-08T14:39:21Z</time>
      </trkpt>
      <trkpt lat="45.31629" lon="5.91901">
        <ele>276.4</ele>
        <time>2010-06-08T14:40:03Z</time>
      </trkpt>
      <trkpt lat="45.31705" lon="5.9184">
        <ele>282.7</ele>
        <time>2010-06-08T14:40:57Z</time>
      </trkpt>
      <trkpt lat="45.31762" lon="5.91762">
        <ele>289.8</ele>
        <time>2010-06-08T14:41:41Z</time>
      </trkpt>
      <trkpt lat="45.31797" lon="5.91702">
        <ele>296.1</ele>
        <time>2010-06-08T14:42:10Z</time>
      </trkpt>
      <trkpt lat="45.31857" lon="5.91639">
        <ele>303.5</ele>
        <time>2010-06-08T14:42:55Z</time>
      </trkpt>
      <trkpt lat="45.31905" lon="5.91634">
        <ele>305.9</ele>
        <time>2010-06-08T14:43:27Z</time>
      </trkpt>
      <trkpt lat="45.31927" lon="5.91695">
        <ele>305.3</ele>
        <time>2010-06-08T14:43:57Z</time>
      </trkpt>
      <trkpt lat="45.31919" lon="5.9176">
        <ele>303.8</ele>
        <time>2010-06-08T14:44:27Z</time>
      </trkpt>
      <trkpt lat="45.31931" lon="5.91822">
        <ele>308.2</ele>
        <time>2010-06-08T14:44:56Z</time>
      </trkpt>
      <trkpt lat="45.3198" lon="5.91904">
        <ele>319.9</ele>
        <time>2010-06-08T14:45:48Z</time>
      </trkpt>
      <trkpt lat="45.31995" lon="5.91958">
        <ele>320.9</ele>
        <time>2010-06-08T14:46:17Z</time>
      </trkpt>
      <trkpt lat="45.32017" lon="5.91997">
        <ele>322.7</ele>
        <time>2010-06-08T14:46:42Z</time>
      </trkpt>
      <trkpt lat="45.32056" lon="5.9204">
        <ele>330.1</ele>
        <time>2010-06-08T14:47:16Z</time>
      </trkpt>
      <trkpt lat="45.32076" lon="5.92075">
        <ele>332.9</ele>
        <time>2010-06-08T14:47:37Z</time>
      </trkpt>
      <trkpt lat="45.32098" lon="5.92139">
        <ele>332.5</ele>
        <time>2010-06-08T14:48:11Z</time>
      </trkpt>
      <trkpt lat="45.32171" lon="5.92197">
        <ele>347.1</ele>
        <time>2010-06-08T14:49:05Z</time>
      </trkpt>
      <trkpt lat="45.32147" lon="5.92145">
        <ele>347.8</ele>
        <time>2010-06-08T14:49:59Z</time>
      </trkpt>
      <trkpt lat="45.32137" lon="5.92115">
        <ele>349</ele>
        <time>2010-06-08T14:50:14Z</time>
      </trkpt>
      <trkpt lat="45.32144" lon="5.92044">
        <ele>358.9</ele>
        <time>2010-06-08T14:50:51Z</time>
      </trkpt>
      <trkpt lat="45.32179" lon="5.92054">
        <ele>367.6</ele>
        <time>2010-06-08T14:51:32Z</time>
      </trkpt>
      <trkpt lat="45.32207" lon="5.92082">
        <ele>373.3</ele>
        <time>2010-06-08T14:51:56Z</time>
      </trkpt>
      <trkpt lat="45.32256" lon="5.92091">
        <ele>380.9</ele>
        <time>2010-06-08T14:52:31Z</time>
      </trkpt>
      <trkpt lat="45.32312" lon="5.92155">
        <ele>386</ele>
        <time>2010-06-08T14:53:23Z</time>
      </trkpt>
      <trkpt lat="45.32383" lon="5.92209">
        <ele>395.6</ele>
        <time>2010-06-08T14:54:20Z</time>
      </trkpt>
      <trkpt lat="45.32436" lon="5.92221">
        <ele>405.2</ele>
        <time>2010-06-08T14:54:55Z</time>
      </trkpt>
      <trkpt lat="45.3249" lon="5.92231">
        <ele>412.2</ele>
        <time>2010-06-08T14:55:32Z</time>
      </trkpt>
      <trkpt lat="45.32538" lon="5.92263">
        <ele>414.6</ele>
        <time>2010-06-08T14:56:09Z</time>
      </trkpt>
      <trkpt lat="45.32568" lon="5.92275">
        <ele>416.4</ele>
        <time>2010-06-08T14:56:32Z</time>
      </trkpt>
      <trkpt lat="45.32565" lon="5.92214">
        <ele>422.9</ele>
        <time>2010-06-08T14:57:02Z</time>
      </trkpt>
      <trkpt lat="45.32508" lon="5.92053">
        <ele>445.2</ele>
        <time>2010-06-08T14:58:23Z</time>
      </trkpt>
      <trkpt lat="45.32446" lon="5.91979">
        <ele>442.6</ele>
        <time>2010-06-08T14:59:17Z</time>
      </trkpt>
      <trkpt lat="45.32395" lon="5.9196">
        <ele>428.1</ele>
        <time>2010-06-08T14:59:51Z</time>
      </trkpt>
      <trkpt lat="45.3236" lon="5.91898">
        <ele>429.3</ele>
        <time>2010-06-08T15:00:11Z</time>
      </trkpt>
      <trkpt lat="45.32322" lon="5.91916">
        <ele>414</ele>
        <time>2010-06-08T15:00:26Z</time>
      </trkpt>
      <trkpt lat="45.32235" lon="5.9194">
        <ele>388.7</ele>
        <time>2010-06-08T15:00:52Z</time>
      </trkpt>
      <trkpt lat="45.32213" lon="5.9195">
        <ele>382.8</ele>
        <time>2010-06-08T15:00:57Z</time>
      </trkpt>
      <trkpt lat="45.32173" lon="5.92003">
        <ele>368.4</ele>
        <time>2010-06-08T15:01:14Z</time>
      </trkpt>
      <trkpt lat="45.3215" lon="5.9201">
        <ele>361.5</ele>
        <time>2010-06-08T15:01:21Z</time>
      </trkpt>
      <trkpt lat="45.32073" lon="5.91973">
        <ele>339.8</ele>
        <time>2010-06-08T15:01:54Z</time>
      </trkpt>
      <trkpt lat="45.32048" lon="5.91901">
        <ele>334.4</ele>
        <time>2010-06-08T15:02:04Z</time>
      </trkpt>
      <trkpt lat="45.32033" lon="5.91877">
        <ele>331.3</ele>
        <time>2010-06-08T15:02:08Z</time>
      </trkpt>
      <trkpt lat="45.31953" lon="5.91797">
        <ele>312.7</ele>
        <time>2010-06-08T15:02:25Z</time>
      </trkpt>
      <trkpt lat="45.31913" lon="5.91792">
        <ele>302.7</ele>
        <time>2010-06-08T15:02:39Z</time>
      </trkpt>
      <trkpt lat="45.31914" lon="5.91734">
        <ele>302.6</ele>
        <time>2010-06-08T15:02:55Z</time>
      </trkpt>
      <trkpt lat="45.31869" lon="5.91687">
        <ele>298.1</ele>
        <time>2010-06-08T15:03:05Z</time>
      </trkpt>
      <trkpt lat="45.3183" lon="5.91675">
        <ele>299.9</ele>
        <time>2010-06-08T15:03:12Z</time>
      </trkpt>
      <trkpt lat="45.31776" lon="5.91726">
        <ele>293.2</ele>
        <time>2010-06-08T15:03:20Z</time>
      </trkpt>
      <trkpt lat="45.31742" lon="5.91787">
        <ele>286.4</ele>
        <time>2010-06-08T15:03:26Z</time>
      </trkpt>
      <trkpt lat="45.31687" lon="5.91857">
        <ele>281.2</ele>
        <time>2010-06-08T15:03:35Z</time>
      </trkpt>
      <trkpt lat="45.31635" lon="5.91888">
        <ele>277.1</ele>
        <time>2010-06-08T15:03:43Z</time>
      </trkpt>
      <trkpt lat="45.31612" lon="5.91854">
        <ele>277.6</ele>
        <time>2010-06-08T15:03:56Z</time>
      </trkpt>
      <trkpt lat="45.31599" lon="5.91794">
        <ele>279.3</ele>
        <time>2010-06-08T15:04:41Z</time>
      </trkpt>
      <trkpt lat="45.31634" lon="5.91745">
        <ele>283.5</ele>
        <time>2010-06-08T15:05:20Z</time>
      </trkpt>
      <trkpt lat="45.31648" lon="5.91709">
        <ele>287.2</ele>
        <time>2010-06-08T15:05:57Z</time>
      </trkpt>
      <trkpt lat="45.31571" lon="5.91675">
        <ele>286.3</ele>
        <time>2010-06-08T15:06:17Z</time>
      </trkpt>
      <trkpt lat="45.31487" lon="5.91614">
        <ele>284.3</ele>
        <time>2010-06-08T15:06:45Z</time>
      </trkpt>
      <trkpt lat="45.31466" lon="5.91564">
        <ele>286.3</ele>
        <time>2010-06-08T15:07:06Z</time>
      </trkpt>
      <trkpt lat="45.31457" lon="5.91512">
        <ele>293.2</ele>
        <time>2010-06-08T15:07:26Z</time>
      </trkpt>
      <trkpt lat="45.31425" lon="5.91432">
        <ele>307.9</ele>
        <time>2010-06-08T15:08:02Z</time>
      </trkpt>
      <trkpt lat="45.31373" lon="5.91383">
        <ele>311.8</ele>
        <time>2010-06-08T15:08:39Z</time>
      </trkpt>
      <trkpt lat="45.31311" lon="5.91346">
        <ele>316.3</ele>
        <time>2010-06-08T15:09:16Z</time>
      </trkpt>
      <trkpt lat="45.31217" lon="5.91272">
        <ele>322.4</ele>
        <time>2010-06-08T15:10:13Z</time>
      </trkpt>
      <trkpt lat="45.31171" lon="5.9123">
        <ele>323.6</ele>
        <time>2010-06-08T15:10:42Z</time>
      </trkpt>
      <trkpt lat="45.31089" lon="5.91134">
        <ele>325.2</ele>
        <time>2010-06-08T15:11:39Z</time>
      </trkpt>
      <trkpt lat="45.31031" lon="5.9104">
        <ele>328.2</ele>
        <time>2010-06-08T15:12:15Z</time>
      </trkpt>
      <trkpt lat="45.31022" lon="5.91026">
        <ele>328.9</ele>
        <time>2010-06-08T15:12:19Z</time>
      </trkpt>
      <trkpt lat="45.30949" lon="5.90941">
        <ele>325.8</ele>
        <time>2010-06-08T15:12:40Z</time>
      </trkpt>
      <trkpt lat="45.30843" lon="5.90848">
        <ele>314.7</ele>
        <time>2010-06-08T15:12:53Z</time>
      </trkpt>
      <trkpt lat="45.30805" lon="5.90825">
        <ele>308.1</ele>
        <time>2010-06-08T15:12:57Z</time>
      </trkpt>
      <trkpt lat="45.30701" lon="5.9073">
        <ele>290.5</ele>
        <time>2010-06-08T15:13:09Z</time>
      </trkpt>
      <trkpt lat="45.30663" lon="5.90668">
        <ele>290.5</ele>
        <time>2010-06-08T15:13:14Z</time>
      </trkpt>
      <trkpt lat="45.30582" lon="5.9058">
        <ele>286.1</ele>
        <time>2010-06-08T15:13:23Z</time>
      </trkpt>
      <trkpt lat="45.30478" lon="5.90497">
        <ele>271.1</ele>
        <time>2010-06-08T15:13:37Z</time>
      </trkpt>
      <trkpt lat="45.30422" lon="5.90428">
        <ele>263.5</ele>
        <time>2010-06-08T15:13:44Z</time>
      </trkpt>
      <trkpt lat="45.30395" lon="5.90378">
        <ele>259.9</ele>
        <time>2010-06-08T15:13:48Z</time>
      </trkpt>
      <trkpt lat="45.3037" lon="5.90295">
        <ele>262.8</ele>
        <time>2010-06-08T15:13:54Z</time>
      </trkpt>
      <trkpt lat="45.30344" lon="5.90259">
        <ele>262.6</ele>
        <time>2010-06-08T15:13:58Z</time>
      </trkpt>
      <trkpt lat="45.30304" lon="5.90238">
        <ele>258.2</ele>
        <time>2010-06-08T15:14:03Z</time>
      </trkpt>
      <trkpt lat="45.30281" lon="5.90285">
        <ele>251</ele>
        <time>2010-06-08T15:14:09Z</time>
      </trkpt>
      <trkpt lat="45.30269" lon="5.9036">
        <ele>243.9</ele>
        <time>2010-06-08T15:14:15Z</time>
      </trkpt>
      <trkpt lat="45.3025" lon="5.90413">
        <ele>239.9</ele>
        <time>2010-06-08T15:14:21Z</time>
      </trkpt>
      <trkpt lat="45.30211" lon="5.90391">
        <ele>238.6</ele>
        <time>2010-06-08T15:14:33Z</time>
      </trkpt>
      <trkpt lat="45.30188" lon="5.9036">
        <ele>240.2</ele>
        <time>2010-06-08T15:14:41Z</time>
      </trkpt>
      <trkpt lat="45.30073" lon="5.90206">
        <ele>248</ele>
        <time>2010-06-08T15:15:21Z</time>
      </trkpt>
      <trkpt lat="45.29985" lon="5.90091">
        <ele>249.3</ele>
        <time>2010-06-08T15:15:49Z</time>
      </trkpt>
      <trkpt lat="45.29867" lon="5.8994">
        <ele>246.3</ele>
        <time>2010-06-08T15:16:21Z</time>
      </trkpt>
      <trkpt lat="45.29838" lon="5.89906">
        <ele>245.7</ele>
        <time>2010-06-08T15:16:28Z</time>
      </trkpt>
      <trkpt lat="45.29795" lon="5.89883">
        <ele>243.4</ele>
        <time>2010-06-08T15:16:36Z</time>
      </trkpt>
      <trkpt lat="45.29685" lon="5.89985">
        <ele>239.1</ele>
        <time>2010-06-08T15:16:54Z</time>
      </trkpt>
      <trkpt lat="45.2964" lon="5.90015">
        <ele>238.4</ele>
        <time>2010-06-08T15:17:04Z</time>
      </trkpt>
      <trkpt lat="45.29602" lon="5.90021">
        <ele>237.6</ele>
        <time>2010-06-08T15:17:15Z</time>
      </trkpt>
      <trkpt lat="45.29583" lon="5.89957">
        <ele>234</ele>
        <time>2010-06-08T15:17:25Z</time>
      </trkpt>
      <trkpt lat="45.29529" lon="5.89942">
        <ele>231.9</ele>
        <time>2010-06-08T15:17:37Z</time>
      </trkpt>
      <trkpt lat="45.29429" lon="5.89843">
        <ele>230.4</ele>
        <time>2010-06-08T15:17:58Z</time>
      </trkpt>
      <trkpt lat="45.2937" lon="5.89779">
        <ele>231.4</ele>
        <time>2010-06-08T15:18:11Z</time>
      </trkpt>
      <trkpt lat="45.29339" lon="5.89759">
        <ele>231.6</ele>
        <time>2010-06-08T15:18:17Z</time>
      </trkpt>
      <trkpt lat="45.29288" lon="5.89748">
        <ele>231</ele>
        <time>2010-06-08T15:18:26Z</time>
      </trkpt>
      <trkpt lat="45.29145" lon="5.89713">
        <ele>228.4</ele>
        <time>2010-06-08T15:18:50Z</time>
      </trkpt>
      <trkpt lat="45.29073" lon="5.89703">
        <ele>226.8</ele>
        <time>2010-06-08T15:19:02Z</time>
      </trkpt>
      <trkpt lat="45.2894" lon="5.89698">
        <ele>226.2</ele>
        <time>2010-06-08T15:19:24Z</time>
      </trkpt>
      <trkpt lat="45.28807" lon="5.89694">
        <ele>227.8</ele>
        <time>2010-06-08T15:19:46Z</time>
      </trkpt>
      <trkpt lat="45.28741" lon="5.89693">
        <ele>227.4</ele>
        <time>2010-06-08T15:19:57Z</time>
      </trkpt>
      <trkpt lat="45.28565" lon="5.89686">
        <ele>227</ele>
        <time>2010-06-08T15:20:26Z</time>
      </trkpt>
      <trkpt lat="45.28529" lon="5.89683">
        <ele>227</ele>
        <time>2010-06-08T15:20:32Z</time>
      </trkpt>
      <trkpt lat="45.28496" lon="5.89708">
        <ele>227</ele>
        <time>2010-06-08T15:20:39Z</time>
      </trkpt>
      <trkpt lat="45.28452" lon="5.89777">
        <ele>227</ele>
        <time>2010-06-08T15:20:50Z</time>
      </trkpt>
      <trkpt lat="45.28417" lon="5.89813">
        <ele>227</ele>
        <time>2010-06-08T15:20:58Z</time>
      </trkpt>
      <trkpt lat="45.28299" lon="5.89699">
        <ele>227</ele>
        <time>2010-06-08T15:21:21Z</time>
      </trkpt>
      <trkpt lat="45.28159" lon="5.89572">
        <ele>226.5</ele>
        <time>2010-06-08T15:21:48Z</time>
      </trkpt>
      <trkpt lat="45.28135" lon="5.89518">
        <ele>227.5</ele>
        <time>2010-06-08T15:21:59Z</time>
      </trkpt>
      <trkpt lat="45.28166" lon="5.8948">
        <ele>228.1</ele>
        <time>2010-06-08T15:22:08Z</time>
      </trkpt>
      <trkpt lat="45.28206" lon="5.89382">
        <ele>229</ele>
        <time>2010-06-08T15:22:26Z</time>
      </trkpt>
      <trkpt lat="45.28251" lon="5.89311">
        <ele>230</ele>
        <time>2010-06-08T15:22:42Z</time>
      </trkpt>
      <trkpt lat="45.28268" lon="5.8916">
        <ele>236.4</ele>
        <time>2010-06-08T15:23:16Z</time>
      </trkpt>
      <trkpt lat="45.28261" lon="5.89092">
        <ele>237.6</ele>
        <time>2010-06-08T15:23:32Z</time>
      </trkpt>
      <trkpt lat="45.28266" lon="5.89054">
        <ele>238.1</ele>
        <time>2010-06-08T15:23:41Z</time>
      </trkpt>
      <trkpt lat="45.28329" lon="5.88941">
        <ele>238.9</ele>
        <time>2010-06-08T15:24:19Z</time>
      </trkpt>
      <trkpt lat="45.2837" lon="5.88862">
        <ele>240.2</ele>
        <time>2010-06-08T15:24:41Z</time>
      </trkpt>
      <trkpt lat="45.28372" lon="5.88802">
        <ele>241.7</ele>
        <time>2010-06-08T15:24:50Z</time>
      </trkpt>
      <trkpt lat="45.2838" lon="5.88715">
        <ele>244</ele>
        <time>2010-06-08T15:25:02Z</time>
      </trkpt>
      <trkpt lat="45.28433" lon="5.88662">
        <ele>246.5</ele>
        <time>2010-06-08T15:25:03Z</time>
      </trkpt>
      <trkpt lat="45.28454" lon="5.88605">
        <ele>248.6</ele>
        <time>2010-06-08T15:25:07Z</time>
      </trkpt>
      <trkpt lat="45.2836" lon="5.88493">
        <ele>248.4</ele>
        <time>2010-06-08T15:25:09Z</time>
      </trkpt>
      <trkpt lat="45.28365" lon="5.8847">
        <ele>248.8</ele>
        <time>2010-06-08T15:25:12Z</time>
      </trkpt>
      <trkpt lat="45.28468" lon="5.88352">
        <ele>256.9</ele>
        <time>2010-06-08T15:25:33Z</time>
      </trkpt>
    </trkseg>
  </trk>
</gpx>